Terminal Aerodrome Forecast
Issued by NWS Melbourne, FL

Home | Current Version | Previous Version | Text Only | Print | Product List | Glossary On
Versions: 1 2 3 4 5 6 7 8 9 10 11 12 13 14 15
000
FTUS42 KMLB 182000 AAA
TAFMLB
TAF AMD
KMLB 182017Z 1820/1918 05007KT P6SM SCT250
     FM190100 00000KT P6SM SCT250
     FM191500 36005KT P6SM BKN250
     FM191700 04007KT P6SM BKN250=

USA.gov is the U.S. government's official web portal to all federal, state and local government web resources and services.